Time;durP1;ratioP1;P1;durP2;ratioP2;P2;SDS_P1;SDS_P2;PMS_P1;PMS_P2;Temp;Humidity;BMP_temperature;BMP_pressure;BME280_temperature;BME280_humidity;BME280_pressure;Samples;Min_cycle;Max_cycle;Signal;HPM_P1;HPM_P2
2021/06/02 00:01:55;;;;;;;11.05;6.57;;;;;;;11.06;100.00;96184.16;5013919;28;20146;-62
2021/06/02 00:04:25;;;;;;;7.72;6.50;;;;;;;10.98;100.00;96184.09;5009130;28;20068;-65
2021/06/02 00:06:56;;;;;;;10.05;6.72;;;;;;;10.77;100.00;96187.94;5040385;28;20065;-65
2021/06/02 00:09:27;;;;;;;8.00;6.60;;;;;;;10.61;100.00;96195.69;5022858;28;20096;-65
2021/06/02 00:11:56;;;;;;;6.93;6.20;;;;;;;10.66;100.00;96199.50;5024412;28;20061;-65
2021/06/02 00:14:26;;;;;;;8.05;6.75;;;;;;;10.75;100.00;96194.31;5026295;28;20057;-66
2021/06/02 00:16:55;;;;;;;10.57;6.82;;;;;;;10.68;100.00;96191.47;5023452;28;20080;-66
2021/06/02 00:19:24;;;;;;;8.90;7.20;;;;;;;10.71;100.00;96192.97;5020935;28;20073;-66
2021/06/02 00:21:53;;;;;;;13.88;7.07;;;;;;;10.62;100.00;96192.06;5026061;28;20080;-65
2021/06/02 00:24:21;;;;;;;8.18;6.93;;;;;;;10.52;100.00;96191.31;5019673;28;20554;-66
2021/06/02 00:26:52;;;;;;;11.18;7.55;;;;;;;10.49;100.00;96192.44;5023509;28;20102;-64
2021/06/02 00:29:21;;;;;;;8.35;6.88;;;;;;;10.51;100.00;96189.66;5007544;28;20092;-66
2021/06/02 00:31:49;;;;;;;8.38;7.10;;;;;;;10.42;100.00;96188.75;5010900;28;20463;-66
2021/06/02 00:34:20;;;;;;;9.25;6.75;;;;;;;10.06;100.00;96193.13;5016993;28;20064;-66
2021/06/02 00:36:48;;;;;;;7.80;6.65;;;;;;;10.14;100.00;96188.75;5005124;28;20078;-66
2021/06/02 00:39:17;;;;;;;7.00;6.30;;;;;;;10.18;100.00;96186.66;5016907;28;20475;-65
2021/06/02 00:41:46;;;;;;;8.25;7.20;;;;;;;10.07;100.00;96184.25;5023644;28;20057;-66
2021/06/02 00:44:17;;;;;;;11.13;6.95;;;;;;;9.92;100.00;96192.66;5018591;28;20070;-64
2021/06/02 00:46:46;;;;;;;9.27;6.72;;;;;;;9.91;100.00;96176.97;5025318;28;20487;-66
2021/06/02 00:49:16;;;;;;;8.82;7.40;;;;;;;9.93;100.00;96175.03;5028579;28;21929;-64
2021/06/02 00:51:46;;;;;;;8.70;7.03;;;;;;;9.91;100.00;96171.72;5033954;28;20467;-64
2021/06/02 00:54:14;;;;;;;7.97;7.15;;;;;;;9.74;100.00;96168.91;5024550;28;20899;-66
2021/06/02 00:56:45;;;;;;;9.95;7.43;;;;;;;9.86;100.00;96169.53;5032960;28;20065;-64
2021/06/02 00:59:13;;;;;;;8.00;7.18;;;;;;;9.95;100.00;96167.81;5025354;28;20574;-63
2021/06/02 01:01:43;;;;;;;11.63;7.50;;;;;;;10.11;100.00;96167.97;5033416;28;20479;-65
2021/06/02 01:04:11;;;;;;;10.73;7.70;;;;;;;10.03;100.00;96170.53;5026556;28;20088;-62
2021/06/02 01:06:41;;;;;;;9.57;7.78;;;;;;;10.05;100.00;96171.22;5030030;28;20472;-65
2021/06/02 01:09:08;;;;;;;9.10;7.40;;;;;;;9.97;100.00;96168.50;5010451;28;20070;-65
2021/06/02 01:11:37;;;;;;;9.35;6.60;;;;;;;9.75;100.00;96169.72;5017978;28;20061;-64
2021/06/02 01:14:05;;;;;;;7.60;6.13;;;;;;;9.50;100.00;96171.25;5030052;28;20522;-64
2021/06/02 01:16:35;;;;;;;7.57;6.57;;;;;;;9.38;100.00;96175.00;5021553;28;20057;-65
2021/06/02 01:19:04;;;;;;;7.43;6.53;;;;;;;9.37;100.00;96181.25;5028551;28;20087;-64
2021/06/02 01:21:33;;;;;;;8.82;6.70;;;;;;;9.04;100.00;96178.97;5022502;28;20085;-65
2021/06/02 01:24:02;;;;;;;8.35;7.00;;;;;;;8.92;100.00;96180.13;5035454;28;20072;-64
2021/06/02 01:26:30;;;;;;;8.93;7.28;;;;;;;9.11;100.00;96181.88;5019457;28;20742;-63
2021/06/02 01:28:58;;;;;;;9.13;7.22;;;;;;;8.97;100.00;96180.53;5031848;28;20559;-63
2021/06/02 01:31:44;;;;;;;13.43;7.90;;;;;;;8.91;100.00;96180.25;5021306;28;20069;-64
2021/06/02 01:34:24;;;;;;;11.55;7.75;;;;;;;8.84;100.00;96184.41;5024830;28;20077;-64
2021/06/02 01:37:05;;;;;;;8.48;7.57;;;;;;;8.84;100.00;96179.16;5026141;28;20080;-65
2021/06/02 01:39:59;;;;;;;13.93;7.53;;;;;;;8.91;100.00;96175.00;5029734;28;21261;-64
2021/06/02 01:42:38;;;;;;;9.77;7.60;;;;;;;9.04;100.00;96176.34;5021137;28;21351;-65
2021/06/02 01:45:37;;;;;;;12.65;7.30;;;;;;;9.06;100.00;96181.50;5026799;28;20459;-64
2021/06/02 01:48:36;;;;;;;8.52;7.47;;;;;;;9.07;100.00;96175.25;5030494;28;20503;-65
2021/06/02 01:51:32;;;;;;;8.77;7.82;;;;;;;8.96;100.00;96178.06;5025333;28;20061;-63
2021/06/02 01:54:24;;;;;;;14.63;6.70;;;;;;;8.43;100.00;96171.47;5026921;28;20065;-64
2021/06/02 01:57:26;;;;;;;13.45;7.10;;;;;;;8.43;100.00;96168.84;5017860;28;20061;-64
2021/06/02 02:00:25;;;;;;;8.98;7.13;;;;;;;8.27;100.00;96168.53;5021014;28;20065;-64
2021/06/02 02:03:30;;;;;;;9.25;6.60;;;;;;;8.20;100.00;96170.03;5022779;28;20073;-64
2021/06/02 02:06:29;;;;;;;7.75;6.95;;;;;;;8.22;100.00;96163.66;5024289;28;20105;-64
2021/06/02 02:09:05;;;;;;;8.90;8.00;;;;;;;8.41;100.00;96162.06;5021492;28;20072;-63
2021/06/02 02:11:35;;;;;;;8.88;7.85;;;;;;;8.44;100.00;96159.16;5021613;28;20091;-64
2021/06/02 02:14:27;;;;;;;10.73;8.13;;;;;;;8.50;100.00;96158.59;5025902;28;20069;-63
2021/06/02 02:17:03;;;;;;;11.63;8.82;;;;;;;8.36;100.00;96167.66;5022649;28;20076;-63
2021/06/02 02:19:54;;;;;;;9.20;6.90;;;;;;;8.17;100.00;96165.06;5025661;28;20074;-65
2021/06/02 02:22:31;;;;;;;7.80;7.00;;;;;;;7.83;100.00;96171.47;5021393;28;20168;-64
2021/06/02 02:25:02;;;;;;;7.25;6.55;;;;;;;7.82;100.00;96175.09;5023005;28;20085;-64
2021/06/02 02:27:35;;;;;;;8.88;7.78;;;;;;;7.94;100.00;96170.53;5019468;28;20099;-64
2021/06/02 02:30:07;;;;;;;11.73;7.03;;;;;;;8.04;100.00;96166.13;5026443;28;20073;-64
2021/06/02 02:32:48;;;;;;;8.15;7.30;;;;;;;8.25;100.00;96166.00;5023403;28;20515;-64
2021/06/02 02:35:35;;;;;;;9.88;7.50;;;;;;;8.26;100.00;96172.13;5026160;28;20057;-64
2021/06/02 02:38:09;;;;;;;10.82;7.60;;;;;;;8.15;100.00;96170.44;5023667;28;20061;-64
2021/06/02 02:40:48;;;;;;;9.15;8.18;;;;;;;8.07;100.00;96168.50;5026195;28;20068;-64
2021/06/02 02:43:24;;;;;;;8.75;7.82;;;;;;;8.07;100.00;96170.28;5017943;28;20065;-64
2021/06/02 02:46:03;;;;;;;9.07;8.07;;;;;;;8.18;100.00;96172.78;5026279;28;20142;-64
2021/06/02 02:48:37;;;;;;;10.07;8.75;;;;;;;8.06;100.00;96182.59;5023407;28;21347;-65
2021/06/02 02:51:18;;;;;;;10.35;8.75;;;;;;;8.13;100.00;96180.25;5027761;28;20059;-64
2021/06/02 02:53:50;;;;;;;10.63;8.45;;;;;;;8.16;100.00;96182.63;5010413;28;20076;-64
2021/06/02 02:56:25;;;;;;;9.48;8.13;;;;;;;8.11;100.00;96189.22;5016695;28;20076;-64
2021/06/02 02:59:00;;;;;;;10.18;8.15;;;;;;;7.95;100.00;96190.59;5023177;28;20730;-64
2021/06/02 03:01:39;;;;;;;10.65;8.13;;;;;;;8.07;100.00;96196.56;5019277;28;20143;-63
2021/06/02 03:04:12;;;;;;;10.07;7.88;;;;;;;8.04;100.00;96200.28;5000031;28;20085;-64
2021/06/02 03:06:42;;;;;;;16.98;8.75;;;;;;;8.16;100.00;96194.91;5001770;28;20073;-64
2021/06/02 03:09:17;;;;;;;10.77;8.15;;;;;;;7.99;100.00;96197.22;5021623;28;20519;-61
2021/06/02 03:11:49;;;;;;;12.30;7.97;;;;;;;8.08;100.00;96203.44;5027949;28;20098;-65
2021/06/02 03:14:19;;;;;;;11.23;8.38;;;;;;;8.18;100.00;96211.34;5022061;28;20087;-64
2021/06/02 03:16:54;;;;;;;11.33;8.50;;;;;;;8.06;100.00;96208.03;5025261;28;20516;-64
2021/06/02 03:19:31;;;;;;;11.73;9.15;;;;;;;8.02;100.00;96211.91;5020818;28;20465;-62
2021/06/02 03:22:03;;;;;;;12.40;9.70;;;;;;;7.89;100.00;96204.25;5019643;28;20553;-63
2021/06/02 03:24:49;;;;;;;11.20;8.70;;;;;;;8.01;100.00;96207.59;5023895;28;20084;-64
2021/06/02 03:27:20;;;;;;;11.75;8.95;;;;;;;8.02;100.00;96212.72;5022890;28;20073;-64
2021/06/02 03:29:53;;;;;;;11.43;8.27;;;;;;;7.96;100.00;96207.19;5021232;28;20053;-64
2021/06/02 03:32:32;;;;;;;10.85;8.82;;;;;;;8.08;100.00;96206.09;5021079;28;20061;-63
2021/06/02 03:35:04;;;;;;;10.55;9.25;;;;;;;8.12;100.00;96207.50;5020894;28;20439;-62
2021/06/02 03:37:42;;;;;;;13.70;9.32;;;;;;;8.24;100.00;96206.38;5023315;28;20057;-64
2021/06/02 03:40:20;;;;;;;10.65;9.10;;;;;;;8.33;100.00;96205.59;5019058;28;20085;-61
2021/06/02 03:42:53;;;;;;;8.88;7.97;;;;;;;8.35;100.00;96210.69;5027638;28;20073;-64
2021/06/02 03:45:32;;;;;;;12.43;9.45;;;;;;;8.40;100.00;96207.69;5000361;28;21266;-63
2021/06/02 03:48:13;;;;;;;10.82;8.60;;;;;;;8.44;100.00;96203.81;5006193;28;20061;-64
2021/06/02 03:50:49;;;;;;;8.52;7.28;;;;;;;8.35;100.00;96207.22;4996781;28;20509;-64
2021/06/02 03:53:36;;;;;;;10.15;8.45;;;;;;;8.90;100.00;96208.34;5004751;28;20673;-64
2021/06/02 03:56:18;;;;;;;10.95;8.55;;;;;;;10.42;100.00;96209.84;5000267;28;20070;-64
2021/06/02 03:58:52;;;;;;;9.10;7.00;;;;;;;10.19;100.00;96210.25;5002956;28;20088;-65
2021/06/02 04:01:28;;;;;;;9.32;6.85;;;;;;;11.90;100.00;96206.44;4999229;28;20072;-65
2021/06/02 04:04:05;;;;;;;9.23;6.40;;;;;;;13.61;100.00;96203.97;5005154;28;20078;-65
2021/06/02 04:06:38;;;;;;;7.05;6.35;;;;;;;13.75;100.00;96210.38;5002757;28;20096;-64
2021/06/02 04:09:09;;;;;;;7.07;6.35;;;;;;;14.09;100.00;96217.22;5002740;28;20058;-65
2021/06/02 04:11:46;;;;;;;9.55;6.63;;;;;;;13.80;100.00;96216.00;5002932;28;20069;-63
2021/06/02 04:14:29;;;;;;;7.05;6.32;;;;;;;14.02;100.00;96215.25;5006734;28;20072;-64
2021/06/02 04:16:58;;;;;;;7.30;6.22;;;;;;;14.99;92.34;96214.88;5000332;28;20109;-65
2021/06/02 04:19:29;;;;;;;7.60;6.68;;;;;;;15.67;84.63;96207.81;5008584;28;20058;-64
2021/06/02 04:22:03;;;;;;;9.88;6.97;;;;;;;15.42;83.20;96223.16;5001072;28;20455;-65
2021/06/02 04:24:32;;;;;;;9.55;6.22;;;;;;;17.04;72.60;96216.84;5001363;28;20069;-65
2021/06/02 04:27:01;;;;;;;8.52;6.43;;;;;;;18.48;60.00;96211.84;4994958;28;20098;-65
2021/06/02 04:29:29;;;;;;;7.88;7.07;;;;;;;17.39;62.65;96230.25;5002847;28;20062;-63
2021/06/02 04:31:59;;;;;;;7.63;6.93;;;;;;;17.62;63.39;96227.34;5002536;28;20076;-65
2021/06/02 04:34:29;;;;;;;;;;;;;;;18.22;61.78;96230.41;4999499;28;20065;-65
2021/06/02 04:36:58;;;;;;;7.57;6.13;;;;;;;17.98;63.09;96229.88;5004215;28;19965;-65
2021/06/02 04:39:27;;;;;;;7.03;6.10;;;;;;;19.43;56.09;96230.53;5008326;28;20496;-65
2021/06/02 04:41:57;;;;;;;7.97;6.47;;;;;;;19.90;52.86;96226.81;5005193;28;20061;-65
2021/06/02 04:44:25;;;;;;;10.18;6.63;;;;;;;19.12;57.43;96236.47;5002585;28;20058;-64
2021/06/02 04:46:54;;;;;;;8.35;6.20;;;;;;;19.93;51.69;96225.56;5010483;28;20069;-64
2021/06/02 04:49:36;;;;;;;9.05;6.45;;;;;;;19.94;52.18;96227.22;5002462;28;20470;-65
2021/06/02 04:52:50;;;;;;;8.55;6.60;;;;;;;20.43;51.17;96227.69;5002045;28;20168;-66
2021/06/02 04:55:37;;;;;;;11.10;6.40;;;;;;;19.92;52.03;96238.16;5008340;28;20527;-63
2021/06/02 04:58:28;;;;;;;7.13;6.43;;;;;;;18.91;59.47;96246.28;5002058;28;20086;-65
2021/06/02 05:01:38;;;;;;;15.93;9.48;;;;;;;20.18;52.08;96239.09;4999584;28;20073;-63
2021/06/02 05:04:33;;;;;;;7.37;6.60;;;;;;;19.50;53.81;96247.38;4980637;28;20082;-65
2021/06/02 05:07:35;;;;;;;11.60;6.70;;;;;;;19.10;58.55;96246.56;4997941;28;20089;-65
2021/06/02 05:10:42;;;;;;;10.23;6.90;;;;;;;20.35;52.40;96242.97;5001316;28;20085;-65
2021/06/02 05:13:47;;;;;;;7.05;6.30;;;;;;;19.70;57.67;96251.94;4995687;28;20098;-65
2021/06/02 05:16:47;;;;;;;7.63;6.30;;;;;;;20.41;53.72;96243.97;4985216;28;20090;-64
2021/06/02 05:20:05;;;;;;;7.57;6.22;;;;;;;21.15;49.91;96244.44;5003337;28;20069;-65
2021/06/02 05:23:18;;;;;;;8.70;6.07;;;;;;;22.59;43.97;96245.25;4981650;28;20061;-66
2021/06/02 05:26:12;;;;;;;6.20;5.60;;;;;;;21.72;48.80;96247.97;4993613;28;20072;-65
2021/06/02 05:28:57;;;;;;;7.60;6.10;;;;;;;23.27;43.19;96244.97;5006597;28;20062;-65
2021/06/02 05:31:41;;;;;;;10.52;6.28;;;;;;;22.93;42.07;96247.31;5000336;28;20077;-65
2021/06/02 05:34:45;;;;;;;7.53;5.90;;;;;;;22.79;40.75;96243.13;5004331;28;20077;-66
2021/06/02 05:37:51;;;;;;;7.07;5.97;;;;;;;21.99;42.29;96245.88;5000219;28;20081;-64
2021/06/02 05:40:39;;;;;;;7.90;6.28;;;;;;;21.84;42.45;96264.19;5000295;28;20053;-64
2021/06/02 05:43:32;;;;;;;7.82;5.65;;;;;;;20.34;46.69;96265.44;5009744;28;20186;-64
2021/06/02 05:46:34;;;;;;;6.20;5.60;;;;;;;20.63;46.06;96253.38;5007209;28;20081;-62
2021/06/02 05:49:23;;;;;;;7.82;6.13;;;;;;;19.64;50.02;96270.47;5000562;28;20070;-62
2021/06/02 05:52:07;;;;;;;7.72;5.72;;;;;;;19.70;50.42;96258.13;4996144;28;20073;-62
2021/06/02 05:54:55;;;;;;;6.70;5.38;;;;;;;19.62;52.74;96261.81;4996615;28;20270;-64
2021/06/02 05:58:11;;;;;;;7.20;5.93;;;;;;;19.23;55.32;96254.56;4978683;28;20253;-63
2021/06/02 06:01:04;;;;;;;8.25;6.15;;;;;;;18.57;60.50;96252.53;4904780;28;20326;-62
2021/06/02 06:03:50;;;;;;;7.18;5.22;;;;;;;17.25;68.56;96261.28;4939851;28;20287;-62
2021/06/02 06:06:29;;;;;;;8.13;6.65;;;;;;;17.30;73.57;96260.72;4995763;28;20065;-62
2021/06/02 06:09:37;;;;;;;8.43;6.20;;;;;;;16.59;80.08;96263.25;5004044;28;20070;-64
2021/06/02 06:12:42;;;;;;;7.32;6.40;;;;;;;16.84;81.65;96266.41;4999755;28;20129;-62
2021/06/02 06:15:57;;;;;;;7.68;6.43;;;;;;;16.68;81.99;96258.63;5000371;28;20069;-62
2021/06/02 06:19:01;;;;;;;10.07;6.72;;;;;;;16.62;89.11;96254.88;5004432;28;20297;-62
2021/06/02 06:22:04;;;;;;;9.52;6.70;;;;;;;16.32;82.43;96268.25;5005623;28;20366;-62
2021/06/02 06:25:10;;;;;;;10.52;6.93;;;;;;;16.81;82.98;96267.63;5017025;23;20086;-64
2021/06/02 06:27:43;;;;;;;9.30;6.72;;;;;;;16.63;83.98;96269.84;5007678;28;20084;-64
2021/06/02 06:30:13;;;;;;;11.20;7.18;;;;;;;16.71;82.79;96274.22;5005232;28;20453;-64
2021/06/02 06:32:42;;;;;;;11.20;7.18;;;;;;;16.96;81.20;96267.56;5005149;28;20470;-63
2021/06/02 06:35:11;;;;;;;8.27;7.22;;;;;;;16.61;84.89;96270.00;4979552;28;20085;-64
2021/06/02 06:37:43;;;;;;;7.65;6.45;;;;;;;16.37;85.66;96275.66;4979118;28;20488;-63
2021/06/02 06:40:15;;;;;;;9.75;7.25;;;;;;;17.00;81.41;96276.03;4985913;28;20074;-63
2021/06/02 06:42:45;;;;;;;9.02;6.70;;;;;;;17.09;79.07;96280.19;4986159;28;20503;-63
2021/06/02 06:45:16;;;;;;;8.95;7.07;;;;;;;17.29;80.36;96281.22;4987841;28;20062;-63
2021/06/02 06:47:45;;;;;;;8.50;6.40;;;;;;;17.52;76.82;96272.19;4984144;28;20085;-63
2021/06/02 06:50:14;;;;;;;12.48;6.85;;;;;;;17.43;76.03;96271.50;4986225;28;20089;-63
2021/06/02 06:52:47;;;;;;;8.63;6.70;;;;;;;17.61;76.88;96271.03;4986813;28;20544;-63
2021/06/02 06:55:17;;;;;;;11.02;6.90;;;;;;;17.04;77.59;96278.13;4984241;28;20775;-63
2021/06/02 06:57:46;;;;;;;7.70;6.93;;;;;;;17.18;78.85;96283.56;4989322;28;20084;-63
2021/06/02 07:00:16;;;;;;;9.55;6.95;;;;;;;17.09;72.69;96281.03;4984582;28;20134;-63
2021/06/02 07:02:45;;;;;;;;;;;;;;;17.44;71.73;96286.47;4985860;28;20575;-62
2021/06/02 07:05:14;;;;;;;7.68;6.55;;;;;;;17.56;69.05;96292.13;4984202;28;20419;-59
2021/06/02 07:07:43;;;;;;;10.63;7.60;;;;;;;17.86;71.65;96291.97;4985727;28;20066;-61
2021/06/02 07:10:14;;;;;;;11.10;7.32;;;;;;;18.20;71.11;96286.66;4982833;28;20074;-63
2021/06/02 07:12:45;;;;;;;9.73;6.93;;;;;;;18.46;67.87;96290.47;4988933;28;20116;-63
2021/06/02 07:15:15;;;;;;;11.07;7.55;;;;;;;18.17;70.00;96291.53;4982169;28;20068;-62
2021/06/02 07:17:47;;;;;;;12.63;7.20;;;;;;;18.42;67.92;96292.72;4985010;28;20430;-63
2021/06/02 07:20:17;;;;;;;12.27;7.53;;;;;;;18.26;71.01;96288.53;4980580;28;20076;-61
2021/06/02 07:22:46;;;;;;;8.13;6.63;;;;;;;18.32;63.93;96291.44;4984107;28;20088;-56
2021/06/02 07:25:15;;;;;;;10.68;6.85;;;;;;;19.19;62.52;96291.56;4982744;28;20133;-63
2021/06/02 07:27:45;;;;;;;9.65;7.60;;;;;;;18.45;66.18;96295.00;4986934;28;20057;-62
2021/06/02 07:30:15;;;;;;;8.20;7.07;;;;;;;19.13;64.27;96291.56;4978722;28;20078;-59
2021/06/02 07:32:43;;;;;;;8.18;6.75;;;;;;;18.62;64.52;96292.00;4986881;28;20077;-59
2021/06/02 07:35:12;;;;;;;9.85;6.97;;;;;;;18.94;64.62;96290.50;4981244;28;20062;-62
2021/06/02 07:37:40;;;;;;;9.02;7.20;;;;;;;19.02;64.33;96295.66;4985738;28;20069;-63
2021/06/02 07:40:09;;;;;;;8.60;7.07;;;;;;;19.08;67.35;96299.38;4983666;28;20092;-62
2021/06/02 07:42:37;;;;;;;10.10;6.60;;;;;;;18.46;65.03;96299.31;4989279;28;20077;-62
2021/06/02 07:45:08;;;;;;;10.55;6.30;;;;;;;19.25;62.67;96306.00;4983914;28;20081;-64
2021/06/02 07:47:36;;;;;;;10.82;6.70;;;;;;;19.62;56.64;96299.25;4985493;28;20066;-62
2021/06/02 07:50:06;;;;;;;10.75;6.57;;;;;;;18.74;60.89;96301.13;4983523;28;20077;-62
2021/06/02 07:52:34;;;;;;;8.27;5.90;;;;;;;19.64;55.65;96299.88;4986130;28;20070;-57
2021/06/02 07:55:03;;;;;;;9.75;6.40;;;;;;;19.94;54.65;96301.34;4983236;28;20086;-63
2021/06/02 07:57:31;;;;;;;9.63;6.50;;;;;;;20.12;53.24;96301.50;4987693;28;20082;-62
2021/06/02 07:59:59;;;;;;;7.65;5.93;;;;;;;20.28;54.40;96295.72;4984601;28;20096;-63
2021/06/02 08:02:28;;;;;;;9.07;6.38;;;;;;;19.85;52.98;96298.03;4981521;28;20077;-61
2021/06/02 08:04:57;;;;;;;7.05;6.38;;;;;;;20.23;51.77;96297.38;4985899;28;20127;-62
2021/06/02 08:07:40;;;;;;;10.65;6.53;;;;;;;20.25;55.64;96292.63;4982542;28;20437;-62
2021/06/02 08:10:08;;;;;;;8.13;5.75;;;;;;;20.18;54.17;96291.84;4984961;28;20110;-63
2021/06/02 08:12:36;;;;;;;10.75;6.28;;;;;;;20.22;56.84;96295.72;4983650;28;20128;-62
2021/06/02 08:15:06;;;;;;;11.70;6.57;;;;;;;20.44;54.05;96298.97;4980189;28;20571;-61
2021/06/02 08:17:35;;;;;;;9.60;6.22;;;;;;;20.61;50.61;96292.97;4975866;28;20420;-63
2021/06/02 08:20:05;;;;;;;7.65;6.43;;;;;;;20.49;53.90;96293.81;4981730;28;20454;-59
2021/06/02 08:22:33;;;;;;;8.90;6.32;;;;;;;20.11;52.53;96302.56;4978585;28;20071;-61
2021/06/02 08:25:02;;;;;;;6.72;5.80;;;;;;;20.48;51.81;96294.84;4980235;28;20085;-61
2021/06/02 08:27:30;;;;;;;8.45;6.50;;;;;;;20.70;56.32;96295.41;4975845;28;20109;-64
2021/06/02 08:29:58;;;;;;;8.80;7.10;;;;;;;20.73;56.85;96292.31;4975432;28;20533;-60
2021/06/02 08:32:25;;;;;;;11.07;6.03;;;;;;;20.81;54.97;96292.88;4975742;28;20085;-63
2021/06/02 08:34:55;;;;;;;9.57;6.00;;;;;;;20.77;53.97;96304.25;4977460;28;20551;-62
2021/06/02 08:37:23;;;;;;;8.70;6.50;;;;;;;20.79;53.91;96297.66;4974883;28;20511;-58
2021/06/02 08:39:51;;;;;;;8.95;6.60;;;;;;;20.51;53.30;96300.66;4979593;28;20540;-62
2021/06/02 08:42:19;;;;;;;9.55;6.15;;;;;;;20.43;53.49;96302.69;4971714;28;20346;-62
2021/06/02 08:44:47;;;;;;;8.27;6.20;;;;;;;20.76;52.47;96305.28;4978434;28;20065;-60
2021/06/02 08:47:15;;;;;;;9.23;6.18;;;;;;;21.51;50.20;96300.19;4973704;28;20130;-61
2021/06/02 08:49:43;;;;;;;12.07;6.80;;;;;;;20.33;51.14;96298.56;4977596;28;20069;-63
2021/06/02 08:52:13;;;;;;;9.60;6.75;;;;;;;20.81;49.96;96308.97;4979400;28;20093;-63
2021/06/02 08:54:41;;;;;;;8.52;6.97;;;;;;;20.60;55.63;96302.03;4976876;28;20082;-62
2021/06/02 08:57:10;;;;;;;9.93;6.00;;;;;;;21.23;55.48;96305.88;4983356;28;20070;-63
2021/06/02 08:59:38;;;;;;;8.82;6.78;;;;;;;20.77;51.94;96302.38;4975977;28;20537;-63
2021/06/02 09:02:06;;;;;;;10.27;6.45;;;;;;;20.37;53.24;96305.19;4978868;28;20078;-62
2021/06/02 09:04:34;;;;;;;10.70;6.40;;;;;;;21.19;52.63;96305.47;4973241;28;20069;-61
2021/06/02 09:07:05;;;;;;;8.48;6.80;;;;;;;21.27;49.49;96299.06;4978694;28;20516;-62
2021/06/02 09:09:34;;;;;;;;;;;;;;;21.69;50.85;96299.41;4980535;28;20082;-62
2021/06/02 09:12:08;;;;;;;16.13;6.75;;;;;;;22.05;49.65;96304.88;4980286;28;19964;-60
2021/06/02 09:14:38;;;;;;;9.55;6.60;;;;;;;21.69;48.12;96308.28;4978187;28;20066;-61
2021/06/02 09:17:08;;;;;;;8.82;6.93;;;;;;;21.22;48.83;96304.22;4982644;28;20066;-64
2021/06/02 09:19:41;;;;;;;68.80;9.73;;;;;;;21.08;48.68;96315.03;4976921;28;20112;-60
2021/06/02 09:22:10;;;;;;;9.23;6.40;;;;;;;22.15;48.98;96307.09;4979893;28;20101;-63
2021/06/02 09:24:51;;;;;;;6.75;5.72;;;;;;;22.45;47.24;96309.06;4987604;28;20085;-62
2021/06/02 09:27:21;;;;;;;10.25;6.35;;;;;;;21.97;48.52;96312.41;4985693;28;20568;-61
2021/06/02 09:29:51;;;;;;;10.85;6.00;;;;;;;23.12;46.48;96311.81;4984569;28;20058;-58
2021/06/02 09:32:19;;;;;;;8.07;6.32;;;;;;;22.62;47.87;96314.69;4988318;28;20539;-62
2021/06/02 09:34:47;;;;;;;11.02;6.40;;;;;;;23.18;46.13;96316.28;4983130;28;20062;-62
2021/06/02 09:37:15;;;;;;;8.48;6.55;;;;;;;22.66;47.55;96313.19;4989942;28;20460;-62
2021/06/02 09:39:44;;;;;;;12.30;6.82;;;;;;;22.54;47.54;96313.13;4985736;28;20074;-62
2021/06/02 09:42:23;;;;;;;9.02;6.57;;;;;;;22.69;46.30;96312.72;4980801;28;20062;-62
2021/06/02 09:45:02;;;;;;;8.82;6.05;;;;;;;23.05;45.62;96311.06;4984522;28;20076;-64
2021/06/02 09:47:44;;;;;;;13.88;6.63;;;;;;;23.17;45.12;96312.78;4987302;28;20080;-63
2021/06/02 09:50:14;;;;;;;9.75;6.95;;;;;;;22.82;44.84;96317.16;4979817;28;20062;-62
2021/06/02 09:52:45;;;;;;;11.83;6.60;;;;;;;22.61;46.02;96311.16;4986171;28;20073;-62
2021/06/02 09:55:18;;;;;;;8.32;5.70;;;;;;;23.13;44.59;96316.16;4982812;28;20089;-63
2021/06/02 09:57:54;;;;;;;44.40;7.82;;;;;;;23.10;45.31;96319.31;4988836;28;20081;-62
2021/06/02 10:00:37;;;;;;;6.65;5.07;;;;;;;23.59;46.30;96317.34;4984068;28;20110;-62
2021/06/02 10:03:08;;;;;;;6.90;5.70;;;;;;;23.52;45.56;96314.75;4984487;28;20042;-63
2021/06/02 10:05:37;;;;;;;7.93;5.97;;;;;;;23.49;46.57;96317.09;4982758;28;20085;-62
2021/06/02 10:08:06;;;;;;;9.25;5.32;;;;;;;23.33;nan;96326.63;4985130;28;20100;-62
2021/06/02 10:10:35;;;;;;;8.33;5.07;;;;;;;23.17;45.60;96322.72;4980893;28;20049;-60
2021/06/02 10:13:06;;;;;;;11.05;5.13;;;;;;;22.98;47.31;96325.41;4984840;28;20078;-58
2021/06/02 10:15:36;;;;;;;7.60;5.22;;;;;;;22.67;48.25;96321.00;4983562;28;20528;-64
2021/06/02 10:18:23;;;;;;;11.23;5.18;;;;;;;22.81;47.92;96321.66;4983204;28;20126;-61
2021/06/02 10:20:58;;;;;;;5.90;5.30;;;;;;;23.20;45.09;96322.25;4983226;28;20074;-64
2021/06/02 10:23:27;;;;;;;8.43;4.60;;;;;;;22.79;50.60;96323.78;4984172;28;20074;-62
2021/06/02 10:26:01;;;;;;;7.30;5.32;;;;;;;23.14;46.67;96329.38;4983517;28;20101;-61
2021/06/02 10:28:32;;;;;;;6.93;4.95;;;;;;;23.36;45.75;96320.78;4986423;28;20080;-62
2021/06/02 10:31:02;;;;;;;5.45;4.80;;;;;;;23.53;45.05;96319.09;4985313;28;20086;-62
2021/06/02 10:33:29;;;;;;;6.57;4.73;;;;;;;23.22;44.04;96318.28;4987802;28;20082;-61
2021/06/02 10:35:58;;;;;;;7.45;5.18;;;;;;;23.22;45.33;96317.47;4984028;28;21226;-61
2021/06/02 10:38:40;;;;;;;5.88;4.70;;;;;;;23.00;44.73;96327.91;4982244;28;20054;-62
2021/06/02 10:41:09;;;;;;;6.25;4.57;;;;;;;23.56;44.35;96320.50;4987221;28;20062;-62
2021/06/02 10:43:43;;;;;;;4.43;4.03;;;;;;;23.89;45.38;96337.00;4981963;28;20072;-62
2021/06/02 10:46:14;;;;;;;5.63;3.90;;;;;;;23.92;44.08;96325.78;4985218;28;20539;-63
2021/06/02 10:48:49;;;;;;;5.20;4.10;;;;;;;24.06;42.60;96322.88;4987045;28;20563;-62
2021/06/02 10:51:27;;;;;;;8.27;4.75;;;;;;;23.87;41.60;96325.63;4986443;28;20081;-62
2021/06/02 10:54:05;;;;;;;6.05;4.80;;;;;;;23.81;41.27;96329.28;4978717;28;20502;-61
2021/06/02 10:56:33;;;;;;;6.82;4.20;;;;;;;24.26;40.93;96331.44;4986477;28;20073;-62
2021/06/02 10:59:04;;;;;;;6.80;3.92;;;;;;;24.32;41.67;96326.97;4980180;28;20066;-63
2021/06/02 11:01:32;;;;;;;5.22;3.65;;;;;;;24.33;40.76;96332.13;4984574;28;20080;-63
2021/06/02 11:04:11;;;;;;;6.47;3.55;;;;;;;24.16;39.57;96328.50;4984911;28;20081;-62
2021/06/02 11:06:41;;;;;;;8.07;3.78;;;;;;;24.43;37.25;96334.25;4986549;28;20089;-62
2021/06/02 11:09:10;;;;;;;;;;;;;;;24.82;37.26;96331.88;4984633;28;20062;-63
2021/06/02 11:11:39;;;;;;;7.32;3.50;;;;;;;24.44;37.89;96341.28;4984662;28;19972;-60
2021/06/02 11:14:27;;;;;;;6.50;3.33;;;;;;;24.86;37.73;96333.03;4983328;28;20066;-63
2021/06/02 11:16:58;;;;;;;5.75;3.65;;;;;;;24.68;38.60;96339.41;4986162;28;20073;-63
2021/06/02 11:19:27;;;;;;;6.28;3.78;;;;;;;24.27;38.71;96334.94;4983401;28;20073;-62
2021/06/02 11:21:59;;;;;;;5.72;3.72;;;;;;;24.67;37.14;96337.75;4986036;28;20772;-61
2021/06/02 11:24:44;;;;;;;8.70;3.47;;;;;;;24.56;36.03;96334.00;4984086;28;20300;-62
2021/06/02 11:27:42;;;;;;;4.50;2.88;;;;;;;24.72;35.16;96324.38;4983009;28;20104;-63
2021/06/02 11:30:17;;;;;;;3.60;3.03;;;;;;;24.92;34.32;96320.47;4979129;28;20074;-62
2021/06/02 11:33:11;;;;;;;7.85;3.50;;;;;;;24.96;34.75;96329.72;4985041;28;20069;-63
2021/06/02 11:35:59;;;;;;;6.32;3.97;;;;;;;24.60;37.16;96332.50;4981621;28;20614;-62
2021/06/02 11:38:28;;;;;;;6.30;3.50;;;;;;;24.86;36.25;96322.25;4983688;28;20120;-64
2021/06/02 11:40:56;;;;;;;5.60;3.13;;;;;;;24.13;37.06;96323.56;4981796;28;20543;-62
2021/06/02 11:43:25;;;;;;;4.70;3.20;;;;;;;24.89;38.45;96319.06;4984511;28;20073;-61
2021/06/02 11:45:56;;;;;;;4.88;3.20;;;;;;;24.66;36.07;96324.50;4983552;28;20078;-61
2021/06/02 11:48:30;;;;;;;6.85;3.53;;;;;;;24.81;34.63;96316.72;4984119;28;20718;-60
2021/06/02 11:51:00;;;;;;;5.78;3.53;;;;;;;25.14;33.80;96310.69;4983426;28;20130;-62
2021/06/02 11:53:47;;;;;;;5.50;3.03;;;;;;;24.97;36.15;96313.28;4981753;28;20089;-60
2021/06/02 11:56:18;;;;;;;6.35;2.65;;;;;;;25.01;33.43;96317.13;4982528;28;20066;-61
2021/06/02 11:58:50;;;;;;;4.05;2.97;;;;;;;25.27;36.08;96318.50;4982604;28;20058;-61
2021/06/02 12:01:25;;;;;;;4.55;3.47;;;;;;;25.15;32.66;96315.00;4981877;28;20112;-63
2021/06/02 12:03:58;;;;;;;6.65;3.15;;;;;;;25.24;33.21;96318.16;4988168;28;20086;-63
2021/06/02 12:06:29;;;;;;;8.45;2.85;;;;;;;25.52;33.10;96315.44;4979334;28;20148;-64
2021/06/02 12:08:57;;;;;;;6.43;3.17;;;;;;;25.64;31.90;96318.09;4983954;28;20079;-64
2021/06/02 12:11:25;;;;;;;6.10;3.25;;;;;;;25.45;33.15;96314.78;4982925;28;20074;-62
2021/06/02 12:13:53;;;;;;;6.03;3.25;;;;;;;25.49;33.55;96315.91;4984656;28;20073;-63